createdAt,value
2023-08-23T00:00:38.250Z,1011.04
2023-08-23T00:01:37.720Z,1011.02
2023-08-23T00:02:39.303Z,1011.01
2023-08-23T00:03:39.306Z,1011.01
2023-08-23T00:04:40.316Z,1011.01
2023-08-23T00:05:40.737Z,1011.01
2023-08-23T00:06:42.262Z,1010.99
2023-08-23T00:07:42.149Z,1010.99
2023-08-23T00:08:43.050Z,1010.98
2023-08-23T00:09:44.292Z,1010.98
2023-08-23T00:10:44.731Z,1010.99
2023-08-23T00:11:45.721Z,1010.98
2023-08-23T00:12:46.419Z,1010.96
2023-08-23T00:13:47.334Z,1010.95
2023-08-23T00:14:49.259Z,1010.94
2023-08-23T00:15:49.787Z,1010.93
2023-08-23T00:16:49.689Z,1010.93
2023-08-23T00:17:50.747Z,1010.93
2023-08-23T00:18:51.365Z,1010.92
2023-08-23T00:19:52.376Z,1010.91
2023-08-23T00:20:53.273Z,1010.91
2023-08-23T00:21:54.154Z,1010.91
2023-08-23T00:22:55.076Z,1010.91
2023-08-23T00:23:56.027Z,1010.92
2023-08-23T00:24:57.001Z,1010.92
2023-08-23T00:25:57.888Z,1010.92
2023-08-23T00:26:59.743Z,1010.92
2023-08-23T00:28:12.813Z,1010.92
2023-08-23T00:29:01.060Z,1010.92
2023-08-23T00:30:01.743Z,1010.92
2023-08-23T00:31:01.706Z,1010.91
2023-08-23T00:32:02.611Z,1010.90
2023-08-23T00:33:04.314Z,1010.89
2023-08-23T00:34:04.056Z,1010.89
2023-08-23T00:35:04.988Z,1010.88
2023-08-23T00:36:05.888Z,1010.89
2023-08-23T00:37:06.779Z,1010.89
2023-08-23T00:38:07.737Z,1010.89
2023-08-23T00:39:08.629Z,1010.88
2023-08-23T00:40:09.555Z,1010.88
2023-08-23T00:41:10.445Z,1010.88
2023-08-23T00:42:11.401Z,1010.88
2023-08-23T00:43:12.348Z,1010.89
2023-08-23T00:44:13.115Z,1010.89
2023-08-23T00:45:14.758Z,1010.89
2023-08-23T00:46:14.701Z,1010.91
2023-08-23T00:47:15.590Z,1010.92
2023-08-23T00:48:16.695Z,1010.93
2023-08-23T00:49:18.259Z,1010.94
2023-08-23T00:50:18.165Z,1010.94
2023-08-23T00:51:20.771Z,1010.94
2023-08-23T00:52:19.698Z,1010.93
2023-08-23T00:53:20.653Z,1010.93
2023-08-23T00:54:21.552Z,1010.93
2023-08-23T00:55:22.461Z,1010.92
2023-08-23T00:56:23.371Z,1010.93
2023-08-23T00:57:24.290Z,1010.92
2023-08-23T00:58:25.319Z,1010.93
2023-08-23T00:59:26.018Z,1010.94
2023-08-23T01:00:26.951Z,1010.95
2023-08-23T01:01:27.944Z,1010.94
2023-08-23T01:02:28.883Z,1010.93
2023-08-23T01:03:29.757Z,1010.92
2023-08-23T01:04:30.697Z,1010.92
2023-08-23T01:05:31.677Z,1010.91
2023-08-23T01:06:32.450Z,1010.90
2023-08-23T01:07:33.345Z,1010.88
2023-08-23T01:08:34.261Z,1010.87
2023-08-23T01:09:35.192Z,1010.86
2023-08-23T01:10:36.120Z,1010.85
2023-08-23T01:11:37.093Z,1010.84
2023-08-23T01:12:38.039Z,1010.82
2023-08-23T01:13:38.460Z,1010.80
2023-08-23T01:14:39.403Z,1010.80
2023-08-23T01:15:40.357Z,1010.80
2023-08-23T01:16:41.365Z,1010.80
2023-08-23T01:17:41.791Z,1010.81
2023-08-23T01:18:42.756Z,1010.82
2023-08-23T01:19:43.662Z,1010.84
2023-08-23T01:20:45.482Z,1010.84
2023-08-23T01:21:45.376Z,1010.85
2023-08-23T01:22:46.276Z,1010.85
2023-08-23T01:23:47.191Z,1010.84
2023-08-23T01:24:49.792Z,1010.84
2023-08-23T01:25:48.737Z,1010.84
2023-08-23T01:26:49.673Z,1010.84
2023-08-23T01:27:57.057Z,1010.82
2023-08-23T01:28:52.363Z,1010.81
2023-08-23T01:29:52.314Z,1010.79
2023-08-23T01:30:53.246Z,1010.78
2023-08-23T01:31:55.891Z,1010.77
2023-08-23T01:32:55.800Z,1010.77
2023-08-23T01:33:55.696Z,1010.76
2023-08-23T01:34:56.648Z,1010.75
2023-08-23T01:35:57.566Z,1010.75
2023-08-23T01:36:58.464Z,1010.74
2023-08-23T01:37:59.402Z,1010.75
2023-08-23T01:39:00.315Z,1010.76
2023-08-23T01:40:01.898Z,1010.77
2023-08-23T01:41:03.777Z,1010.78
2023-08-23T01:42:03.280Z,1010.78
2023-08-23T01:43:03.198Z,1010.79
2023-08-23T01:44:04.138Z,1010.79
2023-08-23T01:45:05.078Z,1010.78
2023-08-23T01:46:06.048Z,1010.78
2023-08-23T01:47:06.962Z,1010.77
2023-08-23T01:48:07.875Z,1010.77
2023-08-23T01:49:09.769Z,1010.78
2023-08-23T01:50:09.673Z,1010.78
2023-08-23T01:51:10.644Z,1010.79
2023-08-23T01:52:11.547Z,1010.80
2023-08-23T01:53:12.446Z,1010.82
2023-08-23T01:54:13.388Z,1010.84
2023-08-23T01:55:15.277Z,1010.85
2023-08-23T01:56:15.186Z,1010.85
2023-08-23T01:57:16.769Z,1010.85
2023-08-23T01:58:18.115Z,1010.86
2023-08-23T01:59:18.797Z,1010.88
2023-08-23T02:00:18.692Z,1010.89
2023-08-23T02:01:19.684Z,1010.90
2023-08-23T02:02:20.611Z,1010.92
2023-08-23T02:03:21.941Z,1010.93
2023-08-23T02:04:21.896Z,1010.95
2023-08-23T02:05:22.798Z,1010.95
2023-08-23T02:06:24.337Z,1010.94
2023-08-23T02:07:24.210Z,1010.92
2023-08-23T02:08:25.775Z,1010.91
2023-08-23T02:09:25.699Z,1010.88
2023-08-23T02:10:26.612Z,1010.86
2023-08-23T02:11:27.521Z,1010.86
2023-08-23T02:12:28.461Z,1010.88
2023-08-23T02:13:29.404Z,1010.90
2023-08-23T02:14:31.343Z,1010.92
2023-08-23T02:15:31.276Z,1010.91
2023-08-23T02:16:32.210Z,1010.90
2023-08-23T02:17:33.208Z,1010.89
2023-08-23T02:18:34.078Z,1010.89
2023-08-23T02:19:34.984Z,1010.90
2023-08-23T02:20:35.910Z,1010.91
2023-08-23T02:21:36.839Z,1010.91
2023-08-23T02:22:37.783Z,1010.92
2023-08-23T02:23:38.701Z,1010.91
2023-08-23T02:24:39.619Z,1010.91
2023-08-23T02:25:40.518Z,1010.91
2023-08-23T02:26:42.098Z,1010.91
2023-08-23T02:27:42.057Z,1010.91
2023-08-23T02:28:42.959Z,1010.91
2023-08-23T02:29:44.821Z,1010.90
2023-08-23T02:30:44.753Z,1010.90
2023-08-23T02:31:45.716Z,1010.89
2023-08-23T02:32:46.672Z,1010.88
2023-08-23T02:33:47.549Z,1010.86
2023-08-23T02:34:48.462Z,1010.84
2023-08-23T02:35:50.276Z,1010.83
2023-08-23T02:36:50.233Z,1010.82
2023-08-23T02:37:51.131Z,1010.81
2023-08-23T02:38:51.905Z,1010.79
2023-08-23T02:39:52.901Z,1010.76
2023-08-23T02:40:53.798Z,1010.74
2023-08-23T02:41:54.288Z,1010.73
2023-08-23T02:42:55.194Z,1010.72
2023-08-23T02:43:56.110Z,1010.71
2023-08-23T02:44:57.143Z,1010.70
2023-08-23T02:45:57.662Z,1010.69
2023-08-23T02:46:58.085Z,1010.67
2023-08-23T02:47:59.020Z,1010.66
2023-08-23T02:48:59.947Z,1010.66
2023-08-23T02:50:00.846Z,1010.66
2023-08-23T02:51:01.740Z,1010.68
2023-08-23T02:52:02.659Z,1010.70
2023-08-23T02:53:04.320Z,1010.70
2023-08-23T02:54:04.230Z,1010.70
2023-08-23T02:55:05.184Z,1010.67
2023-08-23T02:56:06.800Z,1010.65
2023-08-23T02:57:06.737Z,1010.63
2023-08-23T02:58:07.637Z,1010.61
2023-08-23T02:59:08.644Z,1010.59
2023-08-23T03:00:09.119Z,1010.57
2023-08-23T03:01:10.946Z,1010.55
2023-08-23T03:02:10.921Z,1010.53
2023-08-23T03:03:12.839Z,1010.51
2023-08-23T03:04:13.356Z,1010.48
2023-08-23T03:05:13.813Z,1010.45
2023-08-23T03:06:13.743Z,1010.43
2023-08-23T03:07:15.411Z,1010.42
2023-08-23T03:08:15.295Z,1010.42
2023-08-23T03:09:16.519Z,1010.40
2023-08-23T03:10:17.266Z,1010.38
2023-08-23T03:11:17.672Z,1010.37
2023-08-23T03:12:19.304Z,1010.37
2023-08-23T03:13:19.308Z,1010.37
2023-08-23T03:14:20.248Z,1010.35
2023-08-23T03:15:21.052Z,1010.34
2023-08-23T03:16:21.965Z,1010.35
2023-08-23T03:17:23.182Z,1010.37
2023-08-23T03:18:23.582Z,1010.39
2023-08-23T03:19:24.528Z,1010.41
2023-08-23T03:20:26.818Z,1010.41
2023-08-23T03:21:26.227Z,1010.40
2023-08-23T03:22:28.824Z,1010.39
2023-08-23T03:23:28.312Z,1010.38
2023-08-23T03:24:28.603Z,1010.37
2023-08-23T03:25:31.349Z,1010.36
2023-08-23T03:26:30.797Z,1010.35
2023-08-23T03:27:31.279Z,1010.35
2023-08-23T03:28:33.327Z,1010.34
2023-08-23T03:29:32.745Z,1010.33
2023-08-23T03:30:33.651Z,1010.33
2023-08-23T03:31:34.621Z,1010.32
2023-08-23T03:32:35.602Z,1010.33
2023-08-23T03:33:36.538Z,1010.32
2023-08-23T03:34:37.537Z,1010.32
2023-08-23T03:35:40.841Z,1010.31
2023-08-23T03:36:39.289Z,1010.32
2023-08-23T03:37:40.312Z,1010.33
2023-08-23T03:38:40.769Z,1010.34
2023-08-23T03:39:41.648Z,1010.35
2023-08-23T03:40:42.574Z,1010.35
2023-08-23T03:45:17.696Z,1010.42
2023-08-23T03:46:18.751Z,1010.40
2023-08-23T03:47:19.214Z,1010.38
2023-08-23T03:48:20.197Z,1010.36
2023-08-23T03:49:20.682Z,1010.33
2023-08-23T03:50:23.149Z,1010.32
2023-08-23T03:51:25.117Z,1010.31
2023-08-23T03:52:23.560Z,1010.30
2023-08-23T03:53:24.460Z,1010.29
2023-08-23T03:54:25.353Z,1010.28
2023-08-23T03:55:28.130Z,1010.28
2023-08-23T03:56:27.070Z,1010.28
2023-08-23T03:57:27.982Z,1010.29
2023-08-23T03:58:28.938Z,1010.30
2023-08-23T03:59:31.698Z,1010.30
2023-08-23T04:00:31.145Z,1010.30
2023-08-23T04:01:31.591Z,1010.30
2023-08-23T04:02:32.504Z,1010.31
2023-08-23T04:03:33.489Z,1010.32
2023-08-23T04:04:34.796Z,1010.31
2023-08-23T04:05:34.852Z,1010.30
2023-08-23T04:06:35.744Z,1010.29
2023-08-23T04:07:36.699Z,1010.29
2023-08-23T04:08:37.635Z,1010.28
2023-08-23T04:09:41.825Z,1010.26
2023-08-23T04:10:40.149Z,1010.26
2023-08-23T04:11:40.129Z,1010.25
2023-08-23T04:12:41.042Z,1010.23
2023-08-23T04:13:43.663Z,1010.21
2023-08-23T04:14:42.619Z,1010.20
2023-08-23T04:15:43.551Z,1010.20
2023-08-23T04:16:46.211Z,1010.21
2023-08-23T04:17:45.111Z,1010.22
2023-08-23T04:18:46.042Z,1010.22
2023-08-23T04:20:01.656Z,1010.22
2023-08-23T04:20:49.184Z,1010.24
2023-08-23T04:21:48.075Z,1010.27
2023-08-23T04:22:48.970Z,1010.30
2023-08-23T04:23:49.904Z,1010.32
2023-08-23T04:24:50.863Z,1010.36
2023-08-23T04:25:51.778Z,1010.41
2023-08-23T04:26:52.668Z,1010.44
2023-08-23T04:27:53.588Z,1010.46
2023-08-23T04:28:56.128Z,1010.45
2023-08-23T04:29:55.050Z,1010.42
2023-08-23T04:30:55.982Z,1010.40
2023-08-23T04:31:56.939Z,1010.41
2023-08-23T04:32:57.905Z,1010.42
2023-08-23T04:33:58.412Z,1010.44
2023-08-23T04:34:59.488Z,1010.45
2023-08-23T04:35:59.899Z,1010.43
2023-08-23T04:37:00.852Z,1010.41
2023-08-23T04:38:01.828Z,1010.38
2023-08-23T04:39:03.652Z,1010.36
2023-08-23T04:40:03.546Z,1010.35
2023-08-23T04:41:05.178Z,1010.37
2023-08-23T04:42:05.118Z,1010.38
2023-08-23T04:43:10.684Z,1010.39
2023-08-23T04:44:06.573Z,1010.38
2023-08-23T04:45:07.484Z,1010.37
2023-08-23T04:46:10.204Z,1010.36
2023-08-23T04:47:09.154Z,1010.37
2023-08-23T04:48:10.367Z,1010.37
2023-08-23T04:49:12.641Z,1010.36
2023-08-23T04:50:11.532Z,1010.35
2023-08-23T04:51:13.151Z,1010.33
2023-08-23T04:52:13.077Z,1010.34
2023-08-23T04:53:14.657Z,1010.35
2023-08-23T04:54:15.129Z,1010.37
2023-08-23T04:55:17.199Z,1010.38
2023-08-23T04:56:16.678Z,1010.37
2023-08-23T04:57:16.711Z,1010.37
2023-08-23T04:58:19.672Z,1010.37
2023-08-23T04:59:19.679Z,1010.40
2023-08-23T05:00:18.567Z,1010.42
2023-08-23T05:01:21.207Z,1010.44
2023-08-23T05:02:22.688Z,1010.43
2023-08-23T05:03:20.584Z,1010.44
2023-08-23T05:04:21.546Z,1010.47
2023-08-23T05:05:23.192Z,1010.51
2023-08-23T05:06:23.678Z,1010.54
2023-08-23T05:07:23.593Z,1010.58
2023-08-23T05:08:24.494Z,1010.62
2023-08-23T05:09:25.451Z,1010.65
2023-08-23T05:10:27.168Z,1010.67
2023-08-23T05:11:29.710Z,1010.67
2023-08-23T05:12:29.689Z,1010.65
2023-08-23T05:13:29.664Z,1010.65
2023-08-23T05:14:30.171Z,1010.67
2023-08-23T05:15:30.040Z,1010.68
2023-08-23T05:16:31.662Z,1010.69
2023-08-23T05:17:33.187Z,1010.69
2023-08-23T05:18:34.183Z,1010.70
2023-08-23T05:19:35.600Z,1010.70
2023-08-23T05:20:35.315Z,1010.69
2023-08-23T05:21:35.473Z,1010.68
2023-08-23T05:22:35.423Z,1010.68
2023-08-23T05:23:36.344Z,1010.69
2023-08-23T05:24:38.175Z,1010.70
2023-08-23T05:25:38.657Z,1010.72
2023-08-23T05:26:38.565Z,1010.74
2023-08-23T05:27:39.686Z,1010.76
2023-08-23T05:28:40.164Z,1010.78
2023-08-23T05:29:41.083Z,1010.81
2023-08-23T05:30:42.650Z,1010.82
2023-08-23T05:31:42.610Z,1010.83
2023-08-23T05:32:44.177Z,1010.82
2023-08-23T05:33:44.655Z,1010.80
2023-08-23T05:34:44.578Z,1010.78
2023-08-23T05:35:45.414Z,1010.77
2023-08-23T05:36:46.362Z,1010.76
2023-08-23T05:37:48.452Z,1010.77
2023-08-23T05:38:48.034Z,1010.77
2023-08-23T05:39:48.979Z,1010.76
2023-08-23T05:40:49.895Z,1010.74
2023-08-23T05:41:50.860Z,1010.73
2023-08-23T05:42:51.836Z,1010.72
2023-08-23T05:43:53.671Z,1010.73
2023-08-23T05:44:55.164Z,1010.73
2023-08-23T05:45:55.758Z,1010.73
2023-08-23T05:46:56.760Z,1010.72
2023-08-23T05:47:55.752Z,1010.71
2023-08-23T05:48:58.175Z,1010.70
2023-08-23T05:49:57.217Z,1010.71
2023-08-23T05:50:58.651Z,1010.72
2023-08-23T05:51:58.564Z,1010.74
2023-08-23T05:52:59.468Z,1010.76
2023-08-23T05:54:01.157Z,1010.76
2023-08-23T05:55:01.126Z,1010.77
2023-08-23T05:56:02.065Z,1010.79
2023-08-23T05:57:02.988Z,1010.81
2023-08-23T05:58:03.928Z,1010.82
2023-08-23T05:59:04.867Z,1010.81
2023-08-23T06:00:06.668Z,1010.80
2023-08-23T06:01:06.625Z,1010.81
2023-08-23T06:02:07.604Z,1010.81
2023-08-23T06:03:08.565Z,1010.83
2023-08-23T06:04:10.167Z,1010.86
2023-08-23T06:05:10.125Z,1010.88
2023-08-23T06:06:11.050Z,1010.89
2023-08-23T06:07:11.965Z,1010.89
2023-08-23T06:08:14.693Z,1010.88
2023-08-23T06:09:14.154Z,1010.88
2023-08-23T06:10:14.623Z,1010.88
2023-08-23T06:11:15.536Z,1010.87
2023-08-23T06:12:16.456Z,1010.86
2023-08-23T06:13:18.182Z,1010.86
2023-08-23T06:14:19.677Z,1010.84
2023-08-23T06:15:19.160Z,1010.83
2023-08-23T06:16:19.612Z,1010.82
2023-08-23T06:17:20.497Z,1010.82
2023-08-23T06:18:21.508Z,1010.81
2023-08-23T06:19:22.466Z,1010.80
2023-08-23T06:20:23.406Z,1010.78
2023-08-23T06:21:26.195Z,1010.77
2023-08-23T06:22:25.098Z,1010.76
2023-08-23T06:23:26.049Z,1010.76
2023-08-23T06:24:26.969Z,1010.77
2023-08-23T06:25:28.681Z,1010.78
2023-08-23T06:26:30.193Z,1010.78
2023-08-23T06:27:29.122Z,1010.80
2023-08-23T06:28:30.122Z,1010.81
2023-08-23T06:29:31.000Z,1010.83
2023-08-23T06:30:32.824Z,1010.85
2023-08-23T06:31:33.698Z,1010.86
2023-08-23T06:32:33.625Z,1010.86
2023-08-23T06:33:34.072Z,1010.86
2023-08-23T06:34:35.001Z,1010.85
2023-08-23T06:35:35.928Z,1010.84
2023-08-23T06:36:36.841Z,1010.83
2023-08-23T06:37:39.765Z,1010.82
2023-08-23T06:38:38.740Z,1010.82
2023-08-23T06:39:39.683Z,1010.81
2023-08-23T06:40:40.103Z,1010.81
2023-08-23T06:41:41.101Z,1010.82
2023-08-23T06:42:42.681Z,1010.83
2023-08-23T06:43:42.596Z,1010.84
2023-08-23T06:44:43.491Z,1010.84
2023-08-23T06:45:44.436Z,1010.84
2023-08-23T06:46:45.016Z,1010.83
2023-08-23T06:47:45.499Z,1010.83
2023-08-23T06:48:46.111Z,1010.84
2023-08-23T06:49:47.056Z,1010.86
2023-08-23T06:50:48.212Z,1010.87
2023-08-23T06:51:48.930Z,1010.87
2023-08-23T06:52:50.403Z,1010.87
2023-08-23T06:53:50.688Z,1010.86
2023-08-23T06:54:50.633Z,1010.86
2023-08-23T06:55:51.612Z,1010.86
2023-08-23T06:56:54.224Z,1010.87
2023-08-23T06:57:53.433Z,1010.87
2023-08-23T06:58:54.666Z,1010.88
2023-08-23T06:59:55.205Z,1010.88
2023-08-23T07:00:55.730Z,1010.88
2023-08-23T07:01:55.615Z,1010.87
2023-08-23T07:02:57.238Z,1010.86
2023-08-23T07:03:57.230Z,1010.85
2023-08-23T07:04:57.755Z,1010.83
2023-08-23T07:05:59.210Z,1010.82
2023-08-23T07:07:00.180Z,1010.83
2023-08-23T07:08:01.188Z,1010.84
2023-08-23T07:09:02.718Z,1010.86
2023-08-23T07:10:10.875Z,1010.87
2023-08-23T07:11:05.224Z,1010.87
2023-08-23T07:12:03.097Z,1010.87
2023-08-23T07:13:04.006Z,1010.87
2023-08-23T07:14:04.902Z,1010.88
2023-08-23T07:15:06.679Z,1010.88
2023-08-23T07:16:07.224Z,1010.90
2023-08-23T07:17:07.686Z,1010.91
2023-08-23T07:18:08.161Z,1010.92
2023-08-23T07:19:09.705Z,1010.93
2023-08-23T07:20:11.687Z,1010.95
2023-08-23T07:21:10.589Z,1010.98
2023-08-23T07:22:11.506Z,1011.00
2023-08-23T07:23:12.422Z,1011.00
2023-08-23T07:24:13.362Z,1010.99
2023-08-23T07:25:14.356Z,1010.97
2023-08-23T07:26:16.198Z,1010.98
2023-08-23T07:27:15.990Z,1010.99
2023-08-23T07:28:16.993Z,1010.99
2023-08-23T07:29:19.180Z,1010.99
2023-08-23T07:30:18.093Z,1010.99
2023-08-23T07:31:19.028Z,1010.99
2023-08-23T07:32:19.946Z,1011.00
2023-08-23T07:33:20.910Z,1011.01
2023-08-23T07:34:21.806Z,1011.03
2023-08-23T07:35:23.703Z,1011.03
2023-08-23T07:36:23.622Z,1011.03
2023-08-23T07:37:25.200Z,1011.03
2023-08-23T07:38:25.218Z,1011.03
2023-08-23T07:39:26.276Z,1011.03
2023-08-23T07:40:26.670Z,1011.04
2023-08-23T07:41:27.601Z,1011.07
2023-08-23T07:42:28.578Z,1011.08
2023-08-23T07:43:29.010Z,1011.10
2023-08-23T07:44:29.819Z,1011.11
2023-08-23T07:45:30.706Z,1011.11
2023-08-23T07:46:32.198Z,1011.10
2023-08-23T07:47:32.183Z,1011.10
2023-08-23T07:48:33.033Z,1011.11
2023-08-23T07:49:33.959Z,1011.12
2023-08-23T07:50:35.748Z,1011.13
2023-08-23T07:51:35.702Z,1011.14
2023-08-23T07:52:36.682Z,1011.15
2023-08-23T07:53:37.142Z,1011.13
2023-08-23T07:54:38.689Z,1011.13
2023-08-23T07:55:40.203Z,1011.14
2023-08-23T07:56:40.721Z,1011.16
2023-08-23T07:57:39.659Z,1011.18
2023-08-23T07:58:40.566Z,1011.20
2023-08-23T07:59:42.233Z,1011.21
2023-08-23T08:00:43.214Z,1011.21
2023-08-23T08:01:44.266Z,1011.21
2023-08-23T08:02:43.215Z,1011.20
2023-08-23T08:03:44.136Z,1011.20
2023-08-23T08:04:45.081Z,1011.20
2023-08-23T08:05:46.060Z,1011.22
2023-08-23T08:06:46.953Z,1011.21
2023-08-23T08:08:07.534Z,1011.21
2023-08-23T08:08:49.674Z,1011.20
2023-08-23T08:09:49.569Z,1011.18
2023-08-23T08:10:50.555Z,1011.18
2023-08-23T08:11:51.477Z,1011.18
2023-08-23T08:12:53.251Z,1011.19
2023-08-23T08:13:53.174Z,1011.19
2023-08-23T08:14:54.696Z,1011.21
2023-08-23T08:15:54.684Z,1011.22
2023-08-23T08:16:55.565Z,1011.23
2023-08-23T08:17:56.512Z,1011.25
2023-08-23T08:18:57.419Z,1011.27
2023-08-23T08:19:59.983Z,1011.28
2023-08-23T08:20:58.990Z,1011.28
2023-08-23T08:22:00.723Z,1011.28
2023-08-23T08:23:01.237Z,1011.27
2023-08-23T08:24:01.172Z,1011.28
2023-08-23T08:25:02.041Z,1011.29
2023-08-23T08:26:03.727Z,1011.30
2023-08-23T08:27:03.652Z,1011.32
2023-08-23T08:28:07.208Z,1011.32
2023-08-23T08:29:06.832Z,1011.33
2023-08-23T08:30:06.766Z,1011.34
2023-08-23T08:31:06.502Z,1011.35
2023-08-23T08:32:07.413Z,1011.37
2023-08-23T08:33:08.363Z,1011.38
2023-08-23T08:34:09.308Z,1011.39
2023-08-23T08:35:10.420Z,1011.39
2023-08-23T08:36:12.167Z,1011.38
2023-08-23T08:37:11.730Z,1011.36
2023-08-23T08:38:12.693Z,1011.34
2023-08-23T08:39:14.239Z,1011.34
2023-08-23T08:40:14.708Z,1011.34
2023-08-23T08:41:15.144Z,1011.36
2023-08-23T08:42:16.127Z,1011.36
2023-08-23T08:43:17.089Z,1011.37
2023-08-23T08:44:18.206Z,1011.38
2023-08-23T08:45:18.124Z,1011.37
2023-08-23T08:46:19.151Z,1011.35
2023-08-23T08:47:20.103Z,1011.37
2023-08-23T08:48:21.201Z,1011.37
2023-08-23T08:49:21.620Z,1011.36
2023-08-23T08:50:23.284Z,1011.36
2023-08-23T08:51:23.217Z,1011.36
2023-08-23T08:52:25.798Z,1011.35
2023-08-23T08:53:24.705Z,1011.36
2023-08-23T08:54:25.598Z,1011.36
2023-08-23T08:55:26.523Z,1011.36
2023-08-23T08:56:27.535Z,1011.35
2023-08-23T08:57:28.467Z,1011.34
2023-08-23T08:58:29.347Z,1011.35
2023-08-23T08:59:30.278Z,1011.34
2023-08-23T09:00:31.525Z,1011.33
2023-08-23T09:01:31.810Z,1011.33
2023-08-23T09:02:33.247Z,1011.34
2023-08-23T09:03:33.222Z,1011.34
2023-08-23T09:04:34.296Z,1011.34
2023-08-23T09:05:34.732Z,1011.35
2023-08-23T09:06:35.067Z,1011.36
2023-08-23T09:07:37.745Z,1011.36
2023-08-23T09:08:36.645Z,1011.37
2023-08-23T09:09:37.568Z,1011.36
2023-08-23T09:10:38.503Z,1011.38
2023-08-23T09:11:41.249Z,1011.38
2023-08-23T09:12:40.190Z,1011.38
2023-08-23T09:13:41.133Z,1011.37
2023-08-23T09:14:42.093Z,1011.36
2023-08-23T09:15:43.069Z,1011.36
2023-08-23T09:16:44.244Z,1011.35
2023-08-23T09:17:44.215Z,1011.34
2023-08-23T09:18:45.162Z,1011.33
2023-08-23T09:19:46.135Z,1011.33
2023-08-23T09:20:47.071Z,1011.33
2023-08-23T09:21:48.016Z,1011.34
2023-08-23T09:22:48.924Z,1011.34
2023-08-23T09:23:49.841Z,1011.32
2023-08-23T09:24:50.840Z,1011.31
2023-08-23T09:25:51.790Z,1011.30
2023-08-23T09:26:52.697Z,1011.30
2023-08-23T09:27:53.901Z,1011.30
2023-08-23T09:28:54.603Z,1011.31
2023-08-23T09:29:56.230Z,1011.30
2023-08-23T09:30:56.170Z,1011.30
2023-08-23T09:31:57.077Z,1011.31
2023-08-23T09:32:58.804Z,1011.32
2023-08-23T09:33:59.746Z,1011.30
2023-08-23T09:35:00.246Z,1011.30
2023-08-23T09:36:00.268Z,1011.31
2023-08-23T09:37:00.663Z,1011.30
2023-08-23T09:38:01.571Z,1011.28
2023-08-23T09:39:02.560Z,1011.28
2023-08-23T09:40:05.276Z,1011.27
2023-08-23T09:41:04.202Z,1011.26
2023-08-23T09:42:04.989Z,1011.26
2023-08-23T09:43:05.938Z,1011.26
2023-08-23T09:44:06.879Z,1011.25
2023-08-23T09:45:07.766Z,1011.25
2023-08-23T09:46:08.779Z,1011.26
2023-08-23T09:47:10.797Z,1011.27
2023-08-23T09:48:09.892Z,1011.27
2023-08-23T09:49:10.304Z,1011.27
2023-08-23T09:50:11.735Z,1011.26
2023-08-23T09:51:12.146Z,1011.24
2023-08-23T09:52:13.104Z,1011.23
2023-08-23T09:53:14.049Z,1011.23
2023-08-23T09:54:14.935Z,1011.24
2023-08-23T09:55:16.065Z,1011.24
2023-08-23T09:56:17.261Z,1011.23
2023-08-23T09:57:17.206Z,1011.20
2023-08-23T09:58:18.753Z,1011.17
2023-08-23T09:59:18.882Z,1011.16
2023-08-23T10:00:19.796Z,1011.16
2023-08-23T10:01:23.406Z,1011.15
2023-08-23T10:02:22.662Z,1011.15
2023-08-23T10:03:24.821Z,1011.14
2023-08-23T10:04:22.690Z,1011.13
2023-08-23T10:05:27.147Z,1011.12
2023-08-23T10:06:24.414Z,1011.11
2023-08-23T10:07:25.368Z,1011.12
2023-08-23T10:08:26.286Z,1011.12
2023-08-23T10:09:27.190Z,1011.13
2023-08-23T10:10:28.137Z,1011.13
2023-08-23T10:11:30.600Z,1011.13
2023-08-23T10:12:30.819Z,1011.12
2023-08-23T10:13:30.777Z,1011.10
2023-08-23T10:14:32.238Z,1011.08
2023-08-23T10:15:32.783Z,1011.06
2023-08-23T10:16:33.826Z,1011.05
2023-08-23T10:17:33.710Z,1011.06
2023-08-23T10:18:34.635Z,1011.06
2023-08-23T10:19:35.538Z,1011.07
2023-08-23T10:20:36.772Z,1011.07
2023-08-23T10:21:37.183Z,1011.07
2023-08-23T10:22:38.768Z,1011.04
2023-08-23T10:23:38.696Z,1011.03
2023-08-23T10:24:39.576Z,1011.03
2023-08-23T10:25:40.545Z,1011.01
2023-08-23T10:26:41.456Z,1011.00
2023-08-23T10:27:44.273Z,1010.98
2023-08-23T10:28:43.195Z,1010.98
2023-08-23T10:29:45.761Z,1010.97
2023-08-23T10:30:44.731Z,1010.99
2023-08-23T10:31:45.637Z,1010.99
2023-08-23T10:32:46.585Z,1010.97
2023-08-23T10:33:47.548Z,1010.96
2023-08-23T10:34:48.500Z,1010.95
2023-08-23T10:35:49.420Z,1010.94
2023-08-23T10:36:50.316Z,1010.95
2023-08-23T10:37:51.222Z,1010.95
2023-08-23T10:38:52.233Z,1010.95
2023-08-23T10:39:54.801Z,1010.96
2023-08-23T10:40:53.685Z,1010.98
2023-08-23T10:41:55.245Z,1010.98
2023-08-23T10:42:55.176Z,1010.98
2023-08-23T10:43:56.135Z,1010.97
2023-08-23T10:44:58.798Z,1010.95
2023-08-23T10:45:57.931Z,1010.93
2023-08-23T10:46:59.271Z,1010.92
2023-08-23T10:47:59.108Z,1010.91
2023-08-23T10:49:00.029Z,1010.90
2023-08-23T10:50:01.781Z,1010.89
2023-08-23T10:51:01.698Z,1010.87
2023-08-23T10:52:02.646Z,1010.88
2023-08-23T10:53:03.653Z,1010.88
2023-08-23T10:54:04.049Z,1010.89
2023-08-23T10:55:04.946Z,1010.87
2023-08-23T10:56:05.931Z,1010.82
2023-08-23T10:57:06.794Z,1010.80
2023-08-23T10:58:08.278Z,1010.79
2023-08-23T10:59:08.713Z,1010.76
2023-08-23T11:00:09.622Z,1010.76
2023-08-23T11:01:10.502Z,1010.76
2023-08-23T11:02:11.491Z,1010.74
2023-08-23T11:03:12.412Z,1010.73
2023-08-23T11:04:13.340Z,1010.71
2023-08-23T11:05:14.258Z,1010.70
2023-08-23T11:06:15.148Z,1010.70
2023-08-23T11:07:16.077Z,1010.70
2023-08-23T11:08:17.033Z,1010.71
2023-08-23T11:09:17.927Z,1010.70
2023-08-23T11:10:18.853Z,1010.68
2023-08-23T11:11:19.789Z,1010.68
2023-08-23T11:12:20.704Z,1010.68
2023-08-23T11:13:23.294Z,1010.68
2023-08-23T11:14:22.214Z,1010.69
2023-08-23T11:15:23.102Z,1010.69
2023-08-23T11:16:24.131Z,1010.72
2023-08-23T11:17:25.300Z,1010.72
2023-08-23T11:18:25.186Z,1010.72
2023-08-23T11:19:26.160Z,1010.71
2023-08-23T11:20:27.084Z,1010.70
2023-08-23T11:21:27.992Z,1010.69
2023-08-23T11:22:29.779Z,1010.68
2023-08-23T11:23:30.268Z,1010.67
2023-08-23T11:24:30.685Z,1010.68
2023-08-23T11:25:31.670Z,1010.66
2023-08-23T11:26:33.288Z,1010.67
2023-08-23T11:27:33.169Z,1010.66
2023-08-23T11:28:34.084Z,1010.62
2023-08-23T11:29:35.044Z,1010.60
2023-08-23T11:30:35.978Z,1010.61
2023-08-23T11:31:36.909Z,1010.62
2023-08-23T11:32:37.839Z,1010.62
2023-08-23T11:33:38.762Z,1010.62
2023-08-23T11:34:39.733Z,1010.63
2023-08-23T11:35:43.280Z,1010.63
2023-08-23T11:36:41.178Z,1010.64
2023-08-23T11:37:42.819Z,1010.64
2023-08-23T11:38:42.760Z,1010.63
2023-08-23T11:39:44.305Z,1010.60
2023-08-23T11:40:44.244Z,1010.62
2023-08-23T11:41:45.148Z,1010.60
2023-08-23T11:42:46.060Z,1010.59
2023-08-23T11:43:47.021Z,1010.57
2023-08-23T11:44:48.808Z,1010.59
2023-08-23T11:45:49.294Z,1010.58
2023-08-23T11:46:49.717Z,1010.55
2023-08-23T11:47:50.843Z,1010.55
2023-08-23T11:48:51.398Z,1010.53
2023-08-23T11:49:53.281Z,1010.50
2023-08-23T11:50:53.215Z,1010.50
2023-08-23T11:51:54.110Z,1010.51
2023-08-23T11:52:55.028Z,1010.54
2023-08-23T11:53:55.942Z,1010.53
2023-08-23T11:54:56.848Z,1010.51
2023-08-23T11:55:57.743Z,1010.51
2023-08-23T11:56:58.652Z,1010.48
2023-08-23T11:57:59.624Z,1010.48
2023-08-23T11:59:00.564Z,1010.47
2023-08-23T12:00:01.506Z,1010.44
2023-08-23T12:01:02.451Z,1010.48
2023-08-23T12:02:03.345Z,1010.48
2023-08-23T12:03:04.458Z,1010.48
2023-08-23T12:04:04.936Z,1010.49
2023-08-23T12:05:05.820Z,1010.48
2023-08-23T12:06:07.305Z,1010.48
2023-08-23T12:07:07.745Z,1010.47
2023-08-23T12:08:08.676Z,1010.46
2023-08-23T12:09:09.575Z,1010.45
2023-08-23T12:10:11.293Z,1010.44
2023-08-23T12:11:11.178Z,1010.44
2023-08-23T12:12:12.136Z,1010.42
2023-08-23T12:13:13.033Z,1010.45
2023-08-23T12:14:13.962Z,1010.44
2023-08-23T12:15:14.868Z,1010.45
2023-08-23T12:16:15.767Z,1010.46
2023-08-23T12:17:18.477Z,1010.49
2023-08-23T12:18:17.442Z,1010.50
2023-08-23T12:21:06.930Z,1010.52